sensor_id;sensor_type;location;lat;lon;timestamp;P1;durP1;ratioP1;P2;durP2;ratioP2
71475;SDS011;59286;59.274;17.974;2023-02-15T00:00:52;12.68;;;5.82;;
71475;SDS011;59286;59.274;17.974;2023-02-15T00:03:20;10.18;;;5.43;;
71475;SDS011;59286;59.274;17.974;2023-02-15T00:05:46;9.55;;;5.00;;
71475;SDS011;59286;59.274;17.974;2023-02-15T00:08:11;9.27;;;5.10;;
71475;SDS011;59286;59.274;17.974;2023-02-15T00:10:37;8.20;;;5.13;;
71475;SDS011;59286;59.274;17.974;2023-02-15T00:13:02;10.23;;;5.57;;
71475;SDS011;59286;59.274;17.974;2023-02-15T00:15:28;12.90;;;5.38;;
71475;SDS011;59286;59.274;17.974;2023-02-15T00:17:53;7.88;;;5.20;;
71475;SDS011;59286;59.274;17.974;2023-02-15T00:20:18;10.20;;;5.35;;
71475;SDS011;59286;59.274;17.974;2023-02-15T00:22:44;8.75;;;5.38;;
71475;SDS011;59286;59.274;17.974;2023-02-15T00:25:09;11.15;;;5.43;;
71475;SDS011;59286;59.274;17.974;2023-02-15T00:27:35;10.55;;;5.00;;
71475;SDS011;59286;59.274;17.974;2023-02-15T00:30:00;9.63;;;5.05;;
71475;SDS011;59286;59.274;17.974;2023-02-15T00:32:25;13.65;;;5.30;;
71475;SDS011;59286;59.274;17.974;2023-02-15T00:34:50;11.45;;;5.03;;
71475;SDS011;59286;59.274;17.974;2023-02-15T00:37:16;8.38;;;4.90;;
71475;SDS011;59286;59.274;17.974;2023-02-15T00:39:41;6.32;;;4.65;;
71475;SDS011;59286;59.274;17.974;2023-02-15T00:42:07;8.75;;;4.88;;
71475;SDS011;59286;59.274;17.974;2023-02-15T00:44:32;7.97;;;4.75;;
71475;SDS011;59286;59.274;17.974;2023-02-15T00:46:57;11.02;;;5.18;;
71475;SDS011;59286;59.274;17.974;2023-02-15T00:49:23;13.00;;;4.90;;
71475;SDS011;59286;59.274;17.974;2023-02-15T00:51:48;10.88;;;4.90;;
71475;SDS011;59286;59.274;17.974;2023-02-15T00:54:13;8.05;;;4.72;;
71475;SDS011;59286;59.274;17.974;2023-02-15T00:56:39;8.10;;;4.80;;
71475;SDS011;59286;59.274;17.974;2023-02-15T00:59:04;8.70;;;4.93;;
71475;SDS011;59286;59.274;17.974;2023-02-15T01:01:29;11.98;;;4.93;;
71475;SDS011;59286;59.274;17.974;2023-02-15T01:03:55;11.88;;;4.90;;
71475;SDS011;59286;59.274;17.974;2023-02-15T01:06:20;8.85;;;4.90;;
71475;SDS011;59286;59.274;17.974;2023-02-15T01:08:46;10.68;;;5.30;;
71475;SDS011;59286;59.274;17.974;2023-02-15T01:11:13;12.73;;;4.90;;
71475;SDS011;59286;59.274;17.974;2023-02-15T01:13:40;11.00;;;5.70;;
71475;SDS011;59286;59.274;17.974;2023-02-15T01:16:06;11.98;;;5.43;;
71475;SDS011;59286;59.274;17.974;2023-02-15T01:18:32;10.32;;;5.07;;
71475;SDS011;59286;59.274;17.974;2023-02-15T01:20:58;10.35;;;5.38;;
71475;SDS011;59286;59.274;17.974;2023-02-15T01:23:24;12.18;;;5.30;;
71475;SDS011;59286;59.274;17.974;2023-02-15T01:25:49;12.23;;;5.50;;
71475;SDS011;59286;59.274;17.974;2023-02-15T01:28:14;8.50;;;5.15;;
71475;SDS011;59286;59.274;17.974;2023-02-15T01:30:40;7.95;;;5.43;;
71475;SDS011;59286;59.274;17.974;2023-02-15T01:33:05;12.80;;;5.25;;
71475;SDS011;59286;59.274;17.974;2023-02-15T01:35:31;9.27;;;4.88;;
71475;SDS011;59286;59.274;17.974;2023-02-15T01:37:56;13.80;;;5.57;;
71475;SDS011;59286;59.274;17.974;2023-02-15T01:40:21;10.65;;;5.28;;
71475;SDS011;59286;59.274;17.974;2023-02-15T01:42:54;7.88;;;5.30;;
71475;SDS011;59286;59.274;17.974;2023-02-15T01:45:29;9.15;;;5.50;;
71475;SDS011;59286;59.274;17.974;2023-02-15T01:48:08;11.05;;;5.38;;
71475;SDS011;59286;59.274;17.974;2023-02-15T01:50:50;10.60;;;5.28;;
71475;SDS011;59286;59.274;17.974;2023-02-15T01:55:57;10.93;;;5.80;;
71475;SDS011;59286;59.274;17.974;2023-02-15T01:58:27;11.40;;;5.30;;
71475;SDS011;59286;59.274;17.974;2023-02-15T02:00:54;12.32;;;5.90;;
71475;SDS011;59286;59.274;17.974;2023-02-15T02:03:24;10.90;;;5.50;;
71475;SDS011;59286;59.274;17.974;2023-02-15T02:06:16;8.65;;;5.78;;
71475;SDS011;59286;59.274;17.974;2023-02-15T02:08:42;9.85;;;5.53;;
71475;SDS011;59286;59.274;17.974;2023-02-15T02:11:14;10.90;;;5.68;;
71475;SDS011;59286;59.274;17.974;2023-02-15T02:13:40;11.52;;;5.50;;
71475;SDS011;59286;59.274;17.974;2023-02-15T02:18:44;7.82;;;5.22;;
71475;SDS011;59286;59.274;17.974;2023-02-15T02:24:07;13.48;;;5.38;;
71475;SDS011;59286;59.274;17.974;2023-02-15T02:33:01;13.57;;;5.60;;
71475;SDS011;59286;59.274;17.974;2023-02-15T02:35:34;11.05;;;5.85;;
71475;SDS011;59286;59.274;17.974;2023-02-15T02:43:44;14.57;;;6.13;;
71475;SDS011;59286;59.274;17.974;2023-02-15T02:46:25;11.73;;;6.72;;
71475;SDS011;59286;59.274;17.974;2023-02-15T02:48:55;8.50;;;5.85;;
71475;SDS011;59286;59.274;17.974;2023-02-15T02:51:22;11.02;;;6.50;;
71475;SDS011;59286;59.274;17.974;2023-02-15T02:53:50;10.75;;;5.88;;
71475;SDS011;59286;59.274;17.974;2023-02-15T02:56:21;13.07;;;6.63;;
71475;SDS011;59286;59.274;17.974;2023-02-15T03:01:47;15.48;;;6.93;;
71475;SDS011;59286;59.274;17.974;2023-02-15T03:04:20;10.93;;;6.45;;
71475;SDS011;59286;59.274;17.974;2023-02-15T03:09:28;9.40;;;6.82;;
71475;SDS011;59286;59.274;17.974;2023-02-15T03:11:59;14.95;;;7.30;;
71475;SDS011;59286;59.274;17.974;2023-02-15T03:14:26;13.95;;;7.28;;
71475;SDS011;59286;59.274;17.974;2023-02-15T03:16:52;11.00;;;7.30;;
71475;SDS011;59286;59.274;17.974;2023-02-15T03:19:29;14.90;;;7.50;;
71475;SDS011;59286;59.274;17.974;2023-02-15T03:22:01;11.27;;;7.05;;
71475;SDS011;59286;59.274;17.974;2023-02-15T03:24:58;12.73;;;7.68;;
71475;SDS011;59286;59.274;17.974;2023-02-15T03:27:25;13.25;;;7.60;;
71475;SDS011;59286;59.274;17.974;2023-02-15T03:29:56;16.63;;;8.40;;
71475;SDS011;59286;59.274;17.974;2023-02-15T03:32:24;12.90;;;7.95;;
71475;SDS011;59286;59.274;17.974;2023-02-15T03:34:53;12.27;;;8.30;;
71475;SDS011;59286;59.274;17.974;2023-02-15T03:37:41;14.77;;;8.00;;
71475;SDS011;59286;59.274;17.974;2023-02-15T03:40:24;9.63;;;7.30;;
71475;SDS011;59286;59.274;17.974;2023-02-15T03:49:58;12.15;;;8.25;;
71475;SDS011;59286;59.274;17.974;2023-02-15T03:52:03;10.65;;;8.30;;
71475;SDS011;59286;59.274;17.974;2023-02-15T03:54:31;13.73;;;8.95;;
71475;SDS011;59286;59.274;17.974;2023-02-15T03:57:19;12.27;;;9.23;;
71475;SDS011;59286;59.274;17.974;2023-02-15T04:00:26;13.70;;;8.55;;
71475;SDS011;59286;59.274;17.974;2023-02-15T04:05:43;14.10;;;8.43;;
71475;SDS011;59286;59.274;17.974;2023-02-15T04:08:09;14.98;;;9.43;;
71475;SDS011;59286;59.274;17.974;2023-02-15T04:10:35;13.52;;;9.10;;
71475;SDS011;59286;59.274;17.974;2023-02-15T04:13:29;11.93;;;8.90;;
71475;SDS011;59286;59.274;17.974;2023-02-15T04:15:55;13.10;;;9.45;;
71475;SDS011;59286;59.274;17.974;2023-02-15T04:18:34;13.38;;;9.65;;
71475;SDS011;59286;59.274;17.974;2023-02-15T04:21:20;14.45;;;9.80;;
71475;SDS011;59286;59.274;17.974;2023-02-15T04:24:05;16.80;;;10.32;;
71475;SDS011;59286;59.274;17.974;2023-02-15T04:26:49;13.90;;;9.68;;
71475;SDS011;59286;59.274;17.974;2023-02-15T04:29:18;14.30;;;10.02;;
71475;SDS011;59286;59.274;17.974;2023-02-15T04:31:44;18.17;;;10.40;;
71475;SDS011;59286;59.274;17.974;2023-02-15T04:34:09;11.70;;;9.85;;
71475;SDS011;59286;59.274;17.974;2023-02-15T04:36:35;17.55;;;10.55;;
71475;SDS011;59286;59.274;17.974;2023-02-15T04:39:01;15.43;;;9.57;;
71475;SDS011;59286;59.274;17.974;2023-02-15T04:41:27;15.27;;;10.95;;
71475;SDS011;59286;59.274;17.974;2023-02-15T04:43:52;16.45;;;10.05;;
71475;SDS011;59286;59.274;17.974;2023-02-15T04:46:17;12.57;;;10.13;;
71475;SDS011;59286;59.274;17.974;2023-02-15T04:48:43;15.25;;;10.93;;
71475;SDS011;59286;59.274;17.974;2023-02-15T04:51:09;14.13;;;10.65;;
71475;SDS011;59286;59.274;17.974;2023-02-15T04:53:34;17.95;;;11.20;;
71475;SDS011;59286;59.274;17.974;2023-02-15T04:56:00;15.68;;;10.55;;
71475;SDS011;59286;59.274;17.974;2023-02-15T04:58:25;14.80;;;10.77;;
71475;SDS011;59286;59.274;17.974;2023-02-15T05:00:50;17.80;;;10.82;;
71475;SDS011;59286;59.274;17.974;2023-02-15T05:03:16;13.52;;;10.07;;
71475;SDS011;59286;59.274;17.974;2023-02-15T05:05:41;15.23;;;10.43;;
71475;SDS011;59286;59.274;17.974;2023-02-15T05:08:07;15.15;;;10.40;;
71475;SDS011;59286;59.274;17.974;2023-02-15T05:10:32;16.70;;;11.63;;
71475;SDS011;59286;59.274;17.974;2023-02-15T05:12:58;18.67;;;11.20;;
71475;SDS011;59286;59.274;17.974;2023-02-15T05:15:23;16.23;;;10.98;;
71475;SDS011;59286;59.274;17.974;2023-02-15T05:17:49;17.85;;;11.45;;
71475;SDS011;59286;59.274;17.974;2023-02-15T05:20:14;18.33;;;11.82;;
71475;SDS011;59286;59.274;17.974;2023-02-15T05:22:40;14.85;;;11.07;;
71475;SDS011;59286;59.274;17.974;2023-02-15T05:25:06;15.15;;;10.50;;
71475;SDS011;59286;59.274;17.974;2023-02-15T05:27:50;15.90;;;11.10;;
71475;SDS011;59286;59.274;17.974;2023-02-15T05:30:34;18.20;;;11.70;;
71475;SDS011;59286;59.274;17.974;2023-02-15T05:32:59;18.85;;;12.00;;
71475;SDS011;59286;59.274;17.974;2023-02-15T05:35:25;15.30;;;12.00;;
71475;SDS011;59286;59.274;17.974;2023-02-15T05:37:50;16.60;;;11.52;;
71475;SDS011;59286;59.274;17.974;2023-02-15T05:40:15;14.40;;;11.55;;
71475;SDS011;59286;59.274;17.974;2023-02-15T05:42:41;19.08;;;12.45;;
71475;SDS011;59286;59.274;17.974;2023-02-15T05:45:06;17.80;;;12.13;;
71475;SDS011;59286;59.274;17.974;2023-02-15T05:47:32;19.05;;;12.88;;
71475;SDS011;59286;59.274;17.974;2023-02-15T05:49:57;20.13;;;13.43;;
71475;SDS011;59286;59.274;17.974;2023-02-15T05:52:22;18.20;;;11.57;;
71475;SDS011;59286;59.274;17.974;2023-02-15T05:54:48;18.23;;;12.13;;
71475;SDS011;59286;59.274;17.974;2023-02-15T05:57:13;19.23;;;13.02;;
71475;SDS011;59286;59.274;17.974;2023-02-15T05:59:38;17.13;;;12.40;;
71475;SDS011;59286;59.274;17.974;2023-02-15T06:02:04;18.08;;;12.30;;
71475;SDS011;59286;59.274;17.974;2023-02-15T06:04:31;17.73;;;12.32;;
71475;SDS011;59286;59.274;17.974;2023-02-15T06:06:56;19.20;;;12.55;;
71475;SDS011;59286;59.274;17.974;2023-02-15T06:09:21;15.60;;;11.55;;
71475;SDS011;59286;59.274;17.974;2023-02-15T06:11:47;17.67;;;11.75;;
71475;SDS011;59286;59.274;17.974;2023-02-15T06:14:12;18.10;;;12.18;;
71475;SDS011;59286;59.274;17.974;2023-02-15T06:16:37;17.30;;;11.18;;
71475;SDS011;59286;59.274;17.974;2023-02-15T06:19:03;14.93;;;10.02;;
71475;SDS011;59286;59.274;17.974;2023-02-15T06:21:29;14.98;;;11.15;;
71475;SDS011;59286;59.274;17.974;2023-02-15T06:23:55;16.65;;;11.32;;
71475;SDS011;59286;59.274;17.974;2023-02-15T06:26:20;16.23;;;10.70;;
71475;SDS011;59286;59.274;17.974;2023-02-15T06:28:46;18.08;;;11.23;;
71475;SDS011;59286;59.274;17.974;2023-02-15T06:31:11;14.45;;;10.90;;
71475;SDS011;59286;59.274;17.974;2023-02-15T06:33:36;17.15;;;11.38;;
71475;SDS011;59286;59.274;17.974;2023-02-15T06:36:03;16.98;;;11.48;;
71475;SDS011;59286;59.274;17.974;2023-02-15T06:38:28;16.52;;;11.38;;
71475;SDS011;59286;59.274;17.974;2023-02-15T06:40:54;16.20;;;11.13;;
71475;SDS011;59286;59.274;17.974;2023-02-15T06:43:19;14.77;;;11.40;;
71475;SDS011;59286;59.274;17.974;2023-02-15T06:45:45;18.48;;;11.95;;
71475;SDS011;59286;59.274;17.974;2023-02-15T06:48:10;15.77;;;10.90;;
71475;SDS011;59286;59.274;17.974;2023-02-15T06:50:36;18.13;;;10.88;;
71475;SDS011;59286;59.274;17.974;2023-02-15T06:53:01;14.63;;;10.57;;
71475;SDS011;59286;59.274;17.974;2023-02-15T06:55:27;13.52;;;10.73;;
71475;SDS011;59286;59.274;17.974;2023-02-15T06:57:52;16.58;;;11.00;;
71475;SDS011;59286;59.274;17.974;2023-02-15T07:00:17;14.02;;;10.80;;
71475;SDS011;59286;59.274;17.974;2023-02-15T07:02:43;16.05;;;10.45;;
71475;SDS011;59286;59.274;17.974;2023-02-15T07:05:09;16.42;;;11.05;;
71475;SDS011;59286;59.274;17.974;2023-02-15T07:07:34;15.13;;;10.98;;
71475;SDS011;59286;59.274;17.974;2023-02-15T07:10:00;13.05;;;9.93;;
71475;SDS011;59286;59.274;17.974;2023-02-15T07:12:25;13.68;;;9.98;;
71475;SDS011;59286;59.274;17.974;2023-02-15T07:15:06;15.23;;;10.85;;
71475;SDS011;59286;59.274;17.974;2023-02-15T07:17:32;13.77;;;9.88;;
71475;SDS011;59286;59.274;17.974;2023-02-15T07:19:58;13.82;;;10.43;;
71475;SDS011;59286;59.274;17.974;2023-02-15T07:22:23;13.35;;;10.93;;
71475;SDS011;59286;59.274;17.974;2023-02-15T07:24:48;13.77;;;10.43;;
71475;SDS011;59286;59.274;17.974;2023-02-15T07:27:14;19.38;;;10.70;;
71475;SDS011;59286;59.274;17.974;2023-02-15T07:29:39;14.07;;;10.55;;
71475;SDS011;59286;59.274;17.974;2023-02-15T07:32:05;14.82;;;10.43;;
71475;SDS011;59286;59.274;17.974;2023-02-15T07:34:30;13.65;;;10.23;;
71475;SDS011;59286;59.274;17.974;2023-02-15T07:36:56;14.52;;;10.40;;
71475;SDS011;59286;59.274;17.974;2023-02-15T07:39:21;12.60;;;9.77;;
71475;SDS011;59286;59.274;17.974;2023-02-15T07:41:47;14.20;;;10.20;;
71475;SDS011;59286;59.274;17.974;2023-02-15T07:44:13;13.38;;;9.85;;
71475;SDS011;59286;59.274;17.974;2023-02-15T07:46:39;13.27;;;9.48;;
71475;SDS011;59286;59.274;17.974;2023-02-15T07:49:04;13.35;;;9.55;;
71475;SDS011;59286;59.274;17.974;2023-02-15T07:51:29;15.32;;;9.70;;
71475;SDS011;59286;59.274;17.974;2023-02-15T07:53:55;12.80;;;9.32;;
71475;SDS011;59286;59.274;17.974;2023-02-15T07:56:20;14.23;;;9.82;;
71475;SDS011;59286;59.274;17.974;2023-02-15T07:58:45;13.32;;;9.52;;
71475;SDS011;59286;59.274;17.974;2023-02-15T08:01:17;12.27;;;8.90;;
71475;SDS011;59286;59.274;17.974;2023-02-15T08:03:44;12.07;;;8.82;;
71475;SDS011;59286;59.274;17.974;2023-02-15T08:06:09;12.80;;;8.90;;
71475;SDS011;59286;59.274;17.974;2023-02-15T08:08:36;10.48;;;7.88;;
71475;SDS011;59286;59.274;17.974;2023-02-15T08:11:06;11.77;;;7.97;;
71475;SDS011;59286;59.274;17.974;2023-02-15T08:13:57;11.80;;;8.60;;
71475;SDS011;59286;59.274;17.974;2023-02-15T08:16:35;10.93;;;8.27;;
71475;SDS011;59286;59.274;17.974;2023-02-15T08:19:04;10.15;;;8.50;;
71475;SDS011;59286;59.274;17.974;2023-02-15T08:21:35;12.48;;;8.98;;
71475;SDS011;59286;59.274;17.974;2023-02-15T08:24:03;11.40;;;8.30;;
71475;SDS011;59286;59.274;17.974;2023-02-15T08:26:29;11.68;;;9.00;;
71475;SDS011;59286;59.274;17.974;2023-02-15T08:28:55;14.90;;;7.95;;
71475;SDS011;59286;59.274;17.974;2023-02-15T08:31:22;12.73;;;7.93;;
71475;SDS011;59286;59.274;17.974;2023-02-15T08:33:48;10.10;;;7.72;;
71475;SDS011;59286;59.274;17.974;2023-02-15T08:36:16;12.35;;;8.60;;
71475;SDS011;59286;59.274;17.974;2023-02-15T08:38:43;12.75;;;8.65;;
71475;SDS011;59286;59.274;17.974;2023-02-15T08:43:34;9.95;;;7.47;;
71475;SDS011;59286;59.274;17.974;2023-02-15T08:46:00;11.93;;;7.88;;
71475;SDS011;59286;59.274;17.974;2023-02-15T08:48:25;10.23;;;7.85;;
71475;SDS011;59286;59.274;17.974;2023-02-15T08:50:50;10.07;;;8.27;;
71475;SDS011;59286;59.274;17.974;2023-02-15T08:53:16;9.68;;;7.90;;
71475;SDS011;59286;59.274;17.974;2023-02-15T08:55:45;11.18;;;7.97;;
71475;SDS011;59286;59.274;17.974;2023-02-15T08:58:10;12.90;;;8.10;;
71475;SDS011;59286;59.274;17.974;2023-02-15T09:00:35;11.35;;;8.35;;
71475;SDS011;59286;59.274;17.974;2023-02-15T09:03:01;12.25;;;8.50;;
71475;SDS011;59286;59.274;17.974;2023-02-15T09:05:26;9.40;;;8.35;;
71475;SDS011;59286;59.274;17.974;2023-02-15T09:07:51;10.07;;;7.28;;
71475;SDS011;59286;59.274;17.974;2023-02-15T09:10:17;12.38;;;8.20;;
71475;SDS011;59286;59.274;17.974;2023-02-15T09:12:42;9.55;;;8.02;;
71475;SDS011;59286;59.274;17.974;2023-02-15T09:15:08;9.80;;;7.47;;
71475;SDS011;59286;59.274;17.974;2023-02-15T09:17:33;10.32;;;7.97;;
71475;SDS011;59286;59.274;17.974;2023-02-15T09:19:58;10.05;;;7.50;;
71475;SDS011;59286;59.274;17.974;2023-02-15T09:22:23;8.60;;;7.47;;
71475;SDS011;59286;59.274;17.974;2023-02-15T09:24:49;9.20;;;7.10;;
71475;SDS011;59286;59.274;17.974;2023-02-15T09:27:14;13.05;;;7.43;;
71475;SDS011;59286;59.274;17.974;2023-02-15T09:29:39;8.05;;;6.70;;
71475;SDS011;59286;59.274;17.974;2023-02-15T09:32:05;12.10;;;6.93;;
71475;SDS011;59286;59.274;17.974;2023-02-15T09:34:30;8.68;;;7.28;;
71475;SDS011;59286;59.274;17.974;2023-02-15T09:36:55;9.00;;;7.38;;
71475;SDS011;59286;59.274;17.974;2023-02-15T09:39:25;9.55;;;7.30;;
71475;SDS011;59286;59.274;17.974;2023-02-15T09:47:03;8.38;;;7.22;;
71475;SDS011;59286;59.274;17.974;2023-02-15T10:21:02;9.57;;;6.90;;
71475;SDS011;59286;59.274;17.974;2023-02-15T10:29:07;10.30;;;7.63;;
71475;SDS011;59286;59.274;17.974;2023-02-15T10:31:47;9.55;;;7.28;;
71475;SDS011;59286;59.274;17.974;2023-02-15T10:34:15;12.38;;;7.60;;
71475;SDS011;59286;59.274;17.974;2023-02-15T10:50:23;10.95;;;7.95;;
71475;SDS011;59286;59.274;17.974;2023-02-15T11:01:51;10.40;;;8.20;;
71475;SDS011;59286;59.274;17.974;2023-02-15T11:07:18;10.02;;;7.72;;
71475;SDS011;59286;59.274;17.974;2023-02-15T11:09:50;15.35;;;8.38;;
71475;SDS011;59286;59.274;17.974;2023-02-15T11:12:21;12.55;;;8.70;;
71475;SDS011;59286;59.274;17.974;2023-02-15T11:17:51;11.90;;;8.60;;
71475;SDS011;59286;59.274;17.974;2023-02-15T11:20:27;11.32;;;8.02;;
71475;SDS011;59286;59.274;17.974;2023-02-15T11:22:57;13.38;;;8.40;;
71475;SDS011;59286;59.274;17.974;2023-02-15T11:25:25;16.05;;;9.10;;
71475;SDS011;59286;59.274;17.974;2023-02-15T11:27:55;11.48;;;8.25;;
71475;SDS011;59286;59.274;17.974;2023-02-15T11:30:21;12.95;;;8.85;;
71475;SDS011;59286;59.274;17.974;2023-02-15T11:32:50;17.13;;;8.20;;
71475;SDS011;59286;59.274;17.974;2023-02-15T11:35:20;16.40;;;9.20;;
71475;SDS011;59286;59.274;17.974;2023-02-15T11:41:01;12.40;;;8.73;;
71475;SDS011;59286;59.274;17.974;2023-02-15T11:46:14;14.70;;;9.52;;
71475;SDS011;59286;59.274;17.974;2023-02-15T11:48:40;14.50;;;9.50;;
71475;SDS011;59286;59.274;17.974;2023-02-15T11:51:20;13.77;;;9.50;;
71475;SDS011;59286;59.274;17.974;2023-02-15T11:53:47;15.27;;;9.32;;
71475;SDS011;59286;59.274;17.974;2023-02-15T11:56:18;13.40;;;9.55;;
71475;SDS011;59286;59.274;17.974;2023-02-15T11:58:57;14.93;;;9.40;;
71475;SDS011;59286;59.274;17.974;2023-02-15T12:01:44;14.68;;;9.80;;
71475;SDS011;59286;59.274;17.974;2023-02-15T12:09:55;14.38;;;9.55;;
71475;SDS011;59286;59.274;17.974;2023-02-15T12:12:23;15.02;;;9.73;;
71475;SDS011;59286;59.274;17.974;2023-02-15T12:14:57;16.98;;;10.02;;
71475;SDS011;59286;59.274;17.974;2023-02-15T12:17:24;15.00;;;10.38;;
71475;SDS011;59286;59.274;17.974;2023-02-15T12:19:53;14.23;;;9.57;;
71475;SDS011;59286;59.274;17.974;2023-02-15T12:22:29;13.27;;;9.60;;
71475;SDS011;59286;59.274;17.974;2023-02-15T12:25:01;15.55;;;9.98;;
71475;SDS011;59286;59.274;17.974;2023-02-15T12:27:30;17.30;;;10.52;;
71475;SDS011;59286;59.274;17.974;2023-02-15T12:29:59;15.40;;;10.23;;
71475;SDS011;59286;59.274;17.974;2023-02-15T12:32:30;15.13;;;10.07;;
71475;SDS011;59286;59.274;17.974;2023-02-15T12:35:17;13.27;;;9.52;;
71475;SDS011;59286;59.274;17.974;2023-02-15T12:37:54;13.30;;;10.02;;
71475;SDS011;59286;59.274;17.974;2023-02-15T12:40:31;16.40;;;9.82;;
71475;SDS011;59286;59.274;17.974;2023-02-15T12:42:58;19.85;;;10.52;;
71475;SDS011;59286;59.274;17.974;2023-02-15T12:45:33;15.10;;;10.10;;
71475;SDS011;59286;59.274;17.974;2023-02-15T12:50:37;15.40;;;10.57;;
71475;SDS011;59286;59.274;17.974;2023-02-15T12:53:21;20.40;;;10.98;;
71475;SDS011;59286;59.274;17.974;2023-02-15T12:56:05;16.45;;;10.50;;
71475;SDS011;59286;59.274;17.974;2023-02-15T12:58:33;16.10;;;10.55;;
71475;SDS011;59286;59.274;17.974;2023-02-15T13:04:01;16.95;;;11.07;;
71475;SDS011;59286;59.274;17.974;2023-02-15T13:06:31;17.75;;;11.07;;
71475;SDS011;59286;59.274;17.974;2023-02-15T13:09:16;15.48;;;10.43;;
71475;SDS011;59286;59.274;17.974;2023-02-15T13:11:44;14.73;;;10.13;;
71475;SDS011;59286;59.274;17.974;2023-02-15T13:17:09;16.60;;;10.75;;
71475;SDS011;59286;59.274;17.974;2023-02-15T13:19:49;17.67;;;10.60;;
71475;SDS011;59286;59.274;17.974;2023-02-15T13:22:19;18.88;;;11.57;;
71475;SDS011;59286;59.274;17.974;2023-02-15T13:24:48;16.75;;;10.35;;
71475;SDS011;59286;59.274;17.974;2023-02-15T13:27:19;17.60;;;11.27;;
71475;SDS011;59286;59.274;17.974;2023-02-15T13:29:48;17.48;;;11.20;;
71475;SDS011;59286;59.274;17.974;2023-02-15T13:32:24;17.83;;;11.40;;
71475;SDS011;59286;59.274;17.974;2023-02-15T13:34:56;19.45;;;11.27;;
71475;SDS011;59286;59.274;17.974;2023-02-15T13:40:13;17.85;;;10.45;;
71475;SDS011;59286;59.274;17.974;2023-02-15T13:42:57;19.23;;;10.63;;
71475;SDS011;59286;59.274;17.974;2023-02-15T13:51:07;14.90;;;10.15;;
71475;SDS011;59286;59.274;17.974;2023-02-15T13:54:01;18.42;;;10.85;;
71475;SDS011;59286;59.274;17.974;2023-02-15T13:56:48;17.55;;;11.00;;
71475;SDS011;59286;59.274;17.974;2023-02-15T14:02:24;17.55;;;10.13;;
71475;SDS011;59286;59.274;17.974;2023-02-15T14:05:05;16.20;;;10.10;;
71475;SDS011;59286;59.274;17.974;2023-02-15T14:10:29;15.45;;;10.57;;
71475;SDS011;59286;59.274;17.974;2023-02-15T14:15:44;20.88;;;10.50;;
71475;SDS011;59286;59.274;17.974;2023-02-15T14:18:15;17.58;;;10.20;;
71475;SDS011;59286;59.274;17.974;2023-02-15T14:20:53;18.98;;;9.57;;
71475;SDS011;59286;59.274;17.974;2023-02-15T14:31:59;15.38;;;9.88;;
71475;SDS011;59286;59.274;17.974;2023-02-15T14:34:34;18.67;;;11.45;;
71475;SDS011;59286;59.274;17.974;2023-02-15T14:37:02;17.30;;;10.63;;
71475;SDS011;59286;59.274;17.974;2023-02-15T14:39:44;16.90;;;9.80;;
71475;SDS011;59286;59.274;17.974;2023-02-15T14:42:43;14.48;;;9.65;;
71475;SDS011;59286;59.274;17.974;2023-02-15T14:45:20;13.20;;;8.73;;
71475;SDS011;59286;59.274;17.974;2023-02-15T14:55:46;13.23;;;8.50;;
71475;SDS011;59286;59.274;17.974;2023-02-15T14:58:11;14.90;;;8.43;;
71475;SDS011;59286;59.274;17.974;2023-02-15T15:00:38;10.70;;;7.55;;
71475;SDS011;59286;59.274;17.974;2023-02-15T15:03:21;11.55;;;7.85;;
71475;SDS011;59286;59.274;17.974;2023-02-15T15:05:52;16.30;;;7.55;;
71475;SDS011;59286;59.274;17.974;2023-02-15T15:08:42;14.77;;;8.20;;
71475;SDS011;59286;59.274;17.974;2023-02-15T15:13:54;14.52;;;7.88;;
71475;SDS011;59286;59.274;17.974;2023-02-15T15:18:56;14.32;;;8.13;;
71475;SDS011;59286;59.274;17.974;2023-02-15T15:24:59;15.48;;;9.95;;
71475;SDS011;59286;59.274;17.974;2023-02-15T15:32:56;13.90;;;8.65;;
71475;SDS011;59286;59.274;17.974;2023-02-15T15:38:07;15.43;;;7.95;;
71475;SDS011;59286;59.274;17.974;2023-02-15T15:49:24;12.98;;;8.20;;
71475;SDS011;59286;59.274;17.974;2023-02-15T15:51:55;12.50;;;7.93;;
71475;SDS011;59286;59.274;17.974;2023-02-15T15:54:24;13.02;;;7.30;;
71475;SDS011;59286;59.274;17.974;2023-02-15T15:56:52;15.38;;;8.02;;
71475;SDS011;59286;59.274;17.974;2023-02-15T15:59:26;12.25;;;8.38;;
71475;SDS011;59286;59.274;17.974;2023-02-15T16:01:56;14.07;;;8.15;;
71475;SDS011;59286;59.274;17.974;2023-02-15T16:04:31;12.73;;;8.30;;
71475;SDS011;59286;59.274;17.974;2023-02-15T16:07:12;14.77;;;8.75;;
71475;SDS011;59286;59.274;17.974;2023-02-15T16:09:57;14.27;;;8.70;;
71475;SDS011;59286;59.274;17.974;2023-02-15T16:12:29;13.90;;;9.18;;
71475;SDS011;59286;59.274;17.974;2023-02-15T16:14:57;13.95;;;8.88;;
71475;SDS011;59286;59.274;17.974;2023-02-15T16:17:28;14.75;;;9.00;;
71475;SDS011;59286;59.274;17.974;2023-02-15T16:20:01;13.80;;;9.30;;
71475;SDS011;59286;59.274;17.974;2023-02-15T16:22:49;16.80;;;9.70;;
71475;SDS011;59286;59.274;17.974;2023-02-15T16:28:21;12.25;;;8.60;;
71475;SDS011;59286;59.274;17.974;2023-02-15T16:30:54;14.48;;;9.05;;
71475;SDS011;59286;59.274;17.974;2023-02-15T16:33:34;15.80;;;9.73;;
71475;SDS011;59286;59.274;17.974;2023-02-15T16:36:01;16.17;;;9.10;;
71475;SDS011;59286;59.274;17.974;2023-02-15T16:41:06;12.90;;;9.73;;
71475;SDS011;59286;59.274;17.974;2023-02-15T16:43:33;16.35;;;9.98;;
71475;SDS011;59286;59.274;17.974;2023-02-15T16:46:03;16.52;;;9.00;;
71475;SDS011;59286;59.274;17.974;2023-02-15T16:48:30;13.13;;;8.55;;
71475;SDS011;59286;59.274;17.974;2023-02-15T16:50:57;15.85;;;8.45;;
71475;SDS011;59286;59.274;17.974;2023-02-15T16:53:25;18.58;;;9.35;;
71475;SDS011;59286;59.274;17.974;2023-02-15T16:55:53;12.63;;;8.57;;
71475;SDS011;59286;59.274;17.974;2023-02-15T16:58:25;12.23;;;8.30;;
71475;SDS011;59286;59.274;17.974;2023-02-15T17:01:00;15.27;;;8.82;;
71475;SDS011;59286;59.274;17.974;2023-02-15T17:03:27;14.15;;;8.90;;
71475;SDS011;59286;59.274;17.974;2023-02-15T17:05:56;15.60;;;8.23;;
71475;SDS011;59286;59.274;17.974;2023-02-15T17:08:25;11.50;;;8.63;;
71475;SDS011;59286;59.274;17.974;2023-02-15T17:13:23;12.23;;;8.23;;
71475;SDS011;59286;59.274;17.974;2023-02-15T17:18:24;15.75;;;8.10;;
71475;SDS011;59286;59.274;17.974;2023-02-15T17:20:56;14.20;;;8.88;;
71475;SDS011;59286;59.274;17.974;2023-02-15T17:25:53;12.07;;;8.00;;
71475;SDS011;59286;59.274;17.974;2023-02-15T17:28:20;14.00;;;8.25;;
71475;SDS011;59286;59.274;17.974;2023-02-15T17:30:49;13.80;;;8.30;;
71475;SDS011;59286;59.274;17.974;2023-02-15T17:33:23;11.43;;;8.45;;
71475;SDS011;59286;59.274;17.974;2023-02-15T17:36:20;10.70;;;7.97;;
71475;SDS011;59286;59.274;17.974;2023-02-15T17:41:29;14.60;;;8.75;;
71475;SDS011;59286;59.274;17.974;2023-02-15T17:43:56;13.00;;;8.52;;
71475;SDS011;59286;59.274;17.974;2023-02-15T17:46:22;13.07;;;8.23;;
71475;SDS011;59286;59.274;17.974;2023-02-15T17:48:49;14.00;;;8.20;;
71475;SDS011;59286;59.274;17.974;2023-02-15T17:51:17;14.25;;;8.10;;
71475;SDS011;59286;59.274;17.974;2023-02-15T17:53:44;14.77;;;8.45;;
71475;SDS011;59286;59.274;17.974;2023-02-15T17:56:30;13.35;;;8.65;;